Time;durP1;ratioP1;P1;durP2;ratioP2;P2;SDS_P1;SDS_P2;PMS_P1;PMS_P2;Temp;Humidity;BMP_temperature;BMP_pressure;BME280_temperature;BME280_humidity;BME280_pressure;Samples;Min_cycle;Max_cycle;Signal;HPM_P1;HPM_P2
2022/11/16 00:01:03;;;;;;;3.45;1.60;;;15.20;82.60;;;;;;5049006;28;20025;-78
2022/11/16 00:03:30;;;;;;;3.45;1.60;;;15.20;82.50;;;;;;5046727;28;20147;-77
2022/11/16 00:06:00;;;;;;;3.30;1.70;;;15.30;82.70;;;;;;5053754;28;20404;-77
2022/11/16 00:08:32;;;;;;;4.00;1.70;;;15.20;82.80;;;;;;5046302;28;20024;-77
2022/11/16 00:11:09;;;;;;;3.60;1.67;;;15.20;82.90;;;;;;5054089;28;20031;-79
2022/11/16 00:13:35;;;;;;;3.80;1.88;;;15.20;83.10;;;;;;5063768;28;20594;-80
2022/11/16 00:16:01;;;;;;;3.63;1.80;;;15.10;83.10;;;;;;5054415;28;20566;-77
2022/11/16 00:18:27;;;;;;;2.80;1.75;;;15.10;83.30;;;;;;5057040;28;20408;-77
2022/11/16 00:20:53;;;;;;;2.72;1.63;;;15.10;83.40;;;;;;5045865;28;20029;-78
2022/11/16 00:23:19;;;;;;;10.80;2.17;;;15.10;83.40;;;;;;5050653;28;20029;-79
2022/11/16 00:25:45;;;;;;;3.97;1.73;;;15.10;83.40;;;;;;5060479;28;20121;-77
2022/11/16 00:28:11;;;;;;;3.33;1.65;;;15.10;83.50;;;;;;5050400;28;20116;-77
2022/11/16 00:30:37;;;;;;;9.38;2.00;;;15.10;83.50;;;;;;5045474;28;20096;-78
2022/11/16 00:33:04;;;;;;;4.25;1.73;;;15.10;83.60;;;;;;5055020;28;20663;-77
2022/11/16 00:35:30;;;;;;;2.95;1.55;;;15.20;83.70;;;;;;5063613;28;20036;-76
2022/11/16 00:37:55;;;;;;;3.28;1.70;;;15.10;83.70;;;;;;5052206;28;20053;-78
2022/11/16 00:40:21;;;;;;;2.80;1.80;;;15.10;83.70;;;;;;5067083;28;20040;-77
2022/11/16 00:42:47;;;;;;;8.98;2.17;;;15.10;83.70;;;;;;5050280;28;20025;-78
2022/11/16 00:45:12;;;;;;;3.00;1.90;;;15.00;83.70;;;;;;5050944;28;20315;-77
2022/11/16 00:47:38;;;;;;;4.00;2.00;;;15.00;83.70;;;;;;5049444;28;20029;-78
2022/11/16 00:50:04;;;;;;;4.18;1.90;;;15.00;83.70;;;;;;5061337;28;20559;-78
2022/11/16 00:52:30;;;;;;;3.30;1.65;;;15.00;83.70;;;;;;5048716;28;20025;-78
2022/11/16 00:54:55;;;;;;;3.17;1.70;;;15.00;83.70;;;;;;5050292;28;20021;-78
2022/11/16 00:57:21;;;;;;;2.63;1.60;;;15.10;83.70;;;;;;5048679;28;20064;-78
2022/11/16 00:59:47;;;;;;;2.95;1.65;;;15.00;83.80;;;;;;5049056;28;20024;-77
2022/11/16 01:02:13;;;;;;;4.25;1.83;;;15.10;83.80;;;;;;5048562;28;20075;-77
2022/11/16 01:04:38;;;;;;;4.05;1.83;;;15.00;83.70;;;;;;5048777;28;20362;-77
2022/11/16 01:07:04;;;;;;;3.85;1.98;;;15.10;83.50;;;;;;5048717;28;20020;-77
2022/11/16 01:09:29;;;;;;;2.70;1.50;;;15.10;83.40;;;;;;5050094;28;20101;-79
2022/11/16 01:12:11;;;;;;;3.40;1.60;;;15.10;83.10;;;;;;5048351;28;20021;-76
2022/11/16 01:14:42;;;;;;;6.00;1.92;;;15.10;83.10;;;;;;5048548;28;20051;-77
2022/11/16 01:17:08;;;;;;;4.13;1.60;;;15.20;83.10;;;;;;5048771;28;20021;-77
2022/11/16 01:19:35;;;;;;;2.60;1.60;;;15.10;83.10;;;;;;5048848;28;20037;-78
2022/11/16 01:22:01;;;;;;;2.85;1.55;;;15.20;83.70;;;;;;5048128;28;20102;-77
2022/11/16 01:24:26;;;;;;;3.13;1.60;;;15.10;83.20;;;;;;5049318;28;20496;-77
2022/11/16 01:26:56;;;;;;;2.72;1.50;;;15.10;83.40;;;;;;5055864;28;20050;-78
2022/11/16 01:29:27;;;;;;;3.15;1.70;;;15.10;83.60;;;;;;5057740;28;20048;-77
2022/11/16 01:31:53;;;;;;;2.92;1.60;;;15.10;83.60;;;;;;5051469;28;20032;-77
2022/11/16 01:34:19;;;;;;;2.80;1.50;;;15.10;83.70;;;;;;5047893;28;20033;-77
2022/11/16 01:36:44;;;;;;;3.13;1.65;;;15.10;83.70;;;;;;5047100;28;20032;-78
2022/11/16 01:39:14;;;;;;;3.42;1.83;;;15.10;84.20;;;;;;5048240;28;20022;-77
2022/11/16 01:41:41;;;;;;;3.45;1.58;;;15.10;83.80;;;;;;5047494;28;20033;-78
2022/11/16 01:44:32;;;;;;;5.35;1.75;;;15.00;83.70;;;;;;5045664;28;20021;-77
2022/11/16 01:46:59;;;;;;;3.70;1.88;;;15.00;83.70;;;;;;5048046;28;20385;-79
2022/11/16 01:49:28;;;;;;;3.58;1.70;;;15.00;83.90;;;;;;5048146;28;20032;-79
2022/11/16 01:52:04;;;;;;;3.35;1.70;;;15.00;83.90;;;;;;5049984;28;20039;-79
2022/11/16 01:54:34;;;;;;;2.97;1.58;;;15.00;83.90;;;;;;5065345;28;20501;-80
2022/11/16 01:57:04;;;;;;;3.43;1.80;;;15.00;83.90;;;;;;5039085;28;20540;-79
2022/11/16 01:59:29;;;;;;;2.85;1.52;;;15.00;83.90;;;;;;5050398;28;20036;-78
2022/11/16 02:01:58;;;;;;;2.90;1.40;;;15.00;83.90;;;;;;5049921;28;20029;-79
2022/11/16 02:04:23;;;;;;;2.78;1.58;;;15.00;83.90;;;;;;5048641;28;20025;-79
2022/11/16 02:07:19;;;;;;;3.20;1.60;;;15.00;83.90;;;;;;5048440;28;20119;-80
2022/11/16 02:09:57;;;;;;;3.85;1.80;;;15.00;84.00;;;;;;5048583;28;20059;-79
2022/11/16 02:12:42;;;;;;;3.70;1.60;;;14.90;84.00;;;;;;5047901;28;20183;-78
2022/11/16 02:15:12;;;;;;;3.35;1.60;;;15.00;84.00;;;;;;5048186;28;20036;-79
2022/11/16 02:17:40;;;;;;;2.75;1.60;;;15.00;84.00;;;;;;5048240;28;20025;-79
2022/11/16 02:20:36;;;;;;;3.08;1.80;;;15.00;83.80;;;;;;5047707;28;20017;-77
2022/11/16 02:23:13;;;;;;;2.78;1.67;;;15.10;83.70;;;;;;5047982;28;20071;-78
2022/11/16 02:26:10;;;;;;;3.08;1.50;;;15.10;83.60;;;;;;5048019;28;20562;-79
2022/11/16 02:29:08;;;;;;;2.53;1.42;;;15.10;83.40;;;;;;5047666;28;20025;-79
2022/11/16 02:31:38;;;;;;;2.80;1.50;;;15.10;83.40;;;;;;5032771;28;20063;-79
2022/11/16 02:34:07;;;;;;;3.78;1.83;;;15.10;83.90;;;;;;5049273;28;20400;-80
2022/11/16 02:36:34;;;;;;;2.90;1.60;;;15.10;83.50;;;;;;5047572;28;20036;-79
2022/11/16 02:39:07;;;;;;;2.60;1.60;;;15.10;83.70;;;;;;5047833;28;20029;-79
2022/11/16 02:41:35;;;;;;;2.88;1.50;;;15.10;83.70;;;;;;5045857;28;20029;-76
2022/11/16 02:44:18;;;;;;;2.58;1.52;;;15.10;83.90;;;;;;5038278;28;20378;-79
2022/11/16 02:46:47;;;;;;;3.03;1.60;;;15.10;84.00;;;;;;5048005;28;20021;-78
2022/11/16 02:49:17;;;;;;;2.03;1.38;;;15.00;83.90;;;;;;5047132;28;20032;-77
2022/11/16 02:51:45;;;;;;;2.95;1.60;;;15.00;84.00;;;;;;5047177;28;20136;-78
2022/11/16 02:54:22;;;;;;;3.08;1.70;;;15.10;84.00;;;;;;5047561;28;20171;-77
2022/11/16 02:57:03;;;;;;;3.22;1.73;;;15.00;84.00;;;;;;5046800;28;20427;-78
2022/11/16 02:59:48;;;;;;;3.10;1.60;;;15.00;84.00;;;;;;5046334;28;20548;-79
2022/11/16 03:02:35;;;;;;;3.15;1.70;;;15.00;84.10;;;;;;5045258;28;20068;-79
2022/11/16 03:05:04;;;;;;;2.92;1.65;;;15.00;84.10;;;;;;5048208;28;20560;-78
2022/11/16 03:07:34;;;;;;;2.83;1.63;;;14.90;84.10;;;;;;5046154;28;20485;-77
2022/11/16 03:10:00;;;;;;;3.35;1.58;;;15.00;84.10;;;;;;5046388;28;20500;-78
2022/11/16 03:12:30;;;;;;;4.05;1.70;;;15.00;84.10;;;;;;5047183;28;20025;-77
2022/11/16 03:15:03;;;;;;;3.33;1.80;;;15.00;84.30;;;;;;5046268;28;20040;-77
2022/11/16 03:17:41;;;;;;;3.17;1.70;;;15.00;84.30;;;;;;5046900;28;20569;-77
2022/11/16 03:20:26;;;;;;;3.17;1.60;;;15.00;84.20;;;;;;5063142;28;20082;-78
2022/11/16 03:22:57;;;;;;;3.53;1.70;;;15.00;84.20;;;;;;5047385;28;20124;-78
2022/11/16 03:25:28;;;;;;;3.33;1.80;;;15.00;84.20;;;;;;5045962;28;20029;-77
2022/11/16 03:27:57;;;;;;;3.30;1.75;;;15.00;84.20;;;;;;5045121;28;20678;-77
2022/11/16 03:30:24;;;;;;;3.42;1.75;;;15.00;84.20;;;;;;5045027;28;20028;-78
2022/11/16 03:33:08;;;;;;;3.47;1.88;;;15.00;84.10;;;;;;5045763;28;20021;-77
2022/11/16 03:35:55;;;;;;;4.72;1.70;;;15.00;83.90;;;;;;5039445;28;20087;-77
2022/11/16 03:38:23;;;;;;;12.48;2.28;;;15.00;83.80;;;;;;5046216;28;20028;-78
2022/11/16 03:40:50;;;;;;;3.22;1.70;;;15.20;83.70;;;;;;5045775;28;20033;-78
2022/11/16 03:43:17;;;;;;;3.55;1.70;;;15.10;83.60;;;;;;5045909;28;20177;-78
2022/11/16 03:45:44;;;;;;;3.17;1.85;;;15.10;83.50;;;;;;5039097;28;20108;-78
2022/11/16 03:48:10;;;;;;;2.63;1.50;;;15.10;83.50;;;;;;5033926;28;20021;-77
2022/11/16 03:50:36;;;;;;;3.83;1.67;;;15.00;83.60;;;;;;5045350;28;20029;-77
2022/11/16 03:53:01;;;;;;;5.32;2.30;;;15.00;83.70;;;;;;5045693;28;20033;-79
2022/11/16 03:55:27;;;;;;;3.13;1.83;;;15.00;83.90;;;;;;5045627;28;20021;-79
2022/11/16 03:57:52;;;;;;;2.53;1.63;;;15.00;84.00;;;;;;5045698;28;20048;-77
2022/11/16 04:00:18;;;;;;;2.88;1.60;;;15.00;84.10;;;;;;5045559;28;20032;-77
2022/11/16 04:02:44;;;;;;;2.78;1.67;;;15.00;84.10;;;;;;5045598;28;20031;-78
2022/11/16 04:24:34;;;;;;;3.00;1.63;;;15.00;84.40;;;;;;5039321;28;20044;-79
2022/11/16 04:29:48;;;;;;;2.95;1.55;;;14.90;84.30;;;;;;5049157;28;20032;-79
2022/11/16 04:37:48;;;;;;;3.67;1.80;;;15.00;84.40;;;;;;5048010;28;20512;-78
2022/11/16 04:40:26;;;;;;;3.90;2.00;;;14.90;84.40;;;;;;5058852;28;20033;-78
2022/11/16 04:42:54;;;;;;;3.17;1.75;;;15.00;84.50;;;;;;5046864;28;20073;-79
2022/11/16 04:48:05;;;;;;;4.15;1.80;;;14.90;84.30;;;;;;5048432;28;20533;-78
2022/11/16 04:50:31;;;;;;;3.20;1.80;;;15.00;84.20;;;;;;5045558;28;20033;-79
2022/11/16 04:52:56;;;;;;;4.45;2.00;;;15.00;84.10;;;;;;5046480;28;20530;-77
2022/11/16 04:55:22;;;;;;;3.72;2.00;;;15.10;84.00;;;;;;5046054;28;20040;-79
2022/11/16 04:57:48;;;;;;;4.80;2.42;;;15.00;83.80;;;;;;5045703;28;20029;-78
2022/11/16 05:00:14;;;;;;;3.33;1.88;;;15.10;83.80;;;;;;5045364;28;20025;-77
2022/11/16 05:02:40;;;;;;;3.53;1.98;;;15.00;83.70;;;;;;5062478;28;20041;-77
2022/11/16 05:05:06;;;;;;;3.97;2.00;;;15.10;83.80;;;;;;5045202;28;20045;-79
2022/11/16 05:07:32;;;;;;;3.33;1.60;;;15.00;83.90;;;;;;5044447;28;20163;-78
2022/11/16 05:09:58;;;;;;;3.05;1.60;;;15.00;84.00;;;;;;5045442;28;20408;-77
2022/11/16 05:12:26;;;;;;;2.67;1.67;;;15.00;84.20;;;;;;5044583;28;20033;-77
2022/11/16 05:14:54;;;;;;;3.25;1.90;;;15.00;84.30;;;;;;5047567;28;20025;-83
2022/11/16 05:17:20;;;;;;;4.78;2.00;;;14.90;84.20;;;;;;5050925;28;20044;-84
2022/11/16 05:22:30;;;;;;;3.70;1.95;;;15.00;84.40;;;;;;5034774;28;20038;-81
2022/11/16 05:24:56;;;;;;;3.38;1.90;;;15.00;84.50;;;;;;5046964;28;20765;-78
2022/11/16 05:27:24;;;;;;;3.38;1.95;;;15.00;84.50;;;;;;5050199;28;20041;-78
2022/11/16 05:29:51;;;;;;;3.35;2.00;;;14.90;84.50;;;;;;5048062;28;20220;-79
2022/11/16 05:32:18;;;;;;;3.95;2.00;;;15.00;84.60;;;;;;5047958;28;20067;-77
2022/11/16 05:34:44;;;;;;;4.18;2.28;;;14.90;84.60;;;;;;5063918;28;20169;-77
2022/11/16 05:37:10;;;;;;;5.25;2.15;;;14.90;84.50;;;;;;5040967;28;20074;-78
2022/11/16 05:39:37;;;;;;;4.03;2.25;;;14.90;84.50;;;;;;5049188;28;20036;-77
2022/11/16 05:42:03;;;;;;;4.75;2.30;;;15.00;84.60;;;;;;5051605;28;20464;-80
2022/11/16 05:44:28;;;;;;;3.97;1.98;;;14.90;84.50;;;;;;5048612;28;20029;-78
2022/11/16 05:46:54;;;;;;;3.83;2.10;;;14.90;85.00;;;;;;5047645;28;20443;-80
2022/11/16 05:49:21;;;;;;;3.10;1.92;;;14.90;84.50;;;;;;5035329;28;20477;-78
2022/11/16 05:51:47;;;;;;;3.53;1.80;;;14.90;84.50;;;;;;5049948;28;20036;-77
2022/11/16 05:54:16;;;;;;;3.38;2.15;;;14.90;84.60;;;;;;5049338;28;20029;-79
2022/11/16 05:56:42;;;;;;;4.25;2.20;;;14.90;84.50;;;;;;5046975;28;20063;-77
2022/11/16 05:59:07;;;;;;;4.05;2.20;;;14.90;84.60;;;;;;5041600;28;20022;-78
2022/11/16 06:01:33;;;;;;;3.22;1.83;;;14.90;84.50;;;;;;5042428;28;20518;-77
2022/11/16 06:04:00;;;;;;;4.85;2.40;;;14.90;84.40;;;;;;5051254;28;20023;-78
2022/11/16 06:06:26;;;;;;;4.60;2.13;;;15.00;84.20;;;;;;5051766;28;20025;-77
2022/11/16 06:08:52;;;;;;;4.25;2.35;;;15.00;84.60;;;;;;5049364;28;20021;-79
2022/11/16 06:11:17;;;;;;;4.68;2.47;;;15.00;84.00;;;;;;5050364;28;20029;-79
2022/11/16 06:13:43;;;;;;;4.90;2.55;;;15.00;83.90;;;;;;5050383;28;20021;-80
2022/11/16 06:16:08;;;;;;;4.28;2.17;;;15.20;83.90;;;;;;5046871;28;20477;-79
2022/11/16 06:18:43;;;;;;;4.32;2.38;;;15.10;83.90;;;;;;5050493;28;20028;-78
2022/11/16 06:21:10;;;;;;;4.57;2.00;;;15.00;83.90;;;;;;5060118;28;20024;-79
2022/11/16 06:23:36;;;;;;;3.78;2.05;;;15.00;84.20;;;;;;5050299;28;20476;-81
2022/11/16 06:26:02;;;;;;;3.50;2.08;;;15.00;84.30;;;;;;5048901;28;20029;-79
2022/11/16 06:28:28;;;;;;;3.75;2.30;;;15.00;84.40;;;;;;5049490;28;20026;-78
2022/11/16 06:30:54;;;;;;;4.43;2.30;;;15.00;84.50;;;;;;5049706;28;20029;-84
2022/11/16 06:33:19;;;;;;;4.57;2.42;;;15.00;84.50;;;;;;5069348;28;20039;-82
2022/11/16 06:36:34;;;;;;;3.50;2.05;;;14.90;84.50;;;;;;5062832;22;20081;-80
2022/11/16 06:39:18;;;;;;;4.05;2.25;;;14.90;84.60;;;;;;4991120;28;20033;-79
2022/11/16 06:42:22;;;;;;;5.53;2.00;;;14.80;84.50;;;;;;4985307;28;20045;-80
2022/11/16 06:45:13;;;;;;;4.90;2.53;;;14.90;84.70;;;;;;4986012;28;20028;-78
2022/11/16 06:48:11;;;;;;;4.80;2.20;;;14.90;84.60;;;;;;4985254;28;20128;-79
2022/11/16 06:50:45;;;;;;;15.27;3.15;;;14.80;84.60;;;;;;4973848;28;20502;-79
2022/11/16 06:53:19;;;;;;;10.05;3.47;;;14.90;84.70;;;;;;4985467;28;20038;-79
2022/11/16 06:56:17;;;;;;;8.80;3.03;;;14.90;84.70;;;;;;4987929;28;20453;-79
2022/11/16 06:58:54;;;;;;;8.93;3.00;;;14.90;84.70;;;;;;4988820;28;20509;-77
2022/11/16 07:01:50;;;;;;;8.90;3.10;;;14.90;84.70;;;;;;4988722;28;20030;-79
2022/11/16 07:04:40;;;;;;;8.52;3.33;;;14.90;84.70;;;;;;4987299;28;20414;-80
2022/11/16 07:07:11;;;;;;;8.27;3.28;;;14.80;84.60;;;;;;4988194;28;20034;-79
2022/11/16 07:09:43;;;;;;;8.10;3.00;;;15.00;84.80;;;;;;4987981;28;20098;-78
2022/11/16 07:12:08;;;;;;;11.13;3.45;;;14.90;84.70;;;;;;4988548;28;20598;-80
2022/11/16 07:14:34;;;;;;;8.70;3.20;;;14.90;84.60;;;;;;4993672;28;20025;-80
2022/11/16 07:17:00;;;;;;;12.70;3.65;;;14.90;84.50;;;;;;4993847;28;20238;-80
2022/11/16 07:19:25;;;;;;;6.97;3.72;;;15.00;84.30;;;;;;4993957;28;20026;-81
2022/11/16 07:21:51;;;;;;;9.70;3.35;;;14.90;84.10;;;;;;4994243;28;20033;-79
2022/11/16 07:24:16;;;;;;;6.55;3.10;;;14.90;84.00;;;;;;4996189;28;20022;-80
2022/11/16 07:26:42;;;;;;;6.47;3.00;;;15.00;84.60;;;;;;4995614;28;20496;-81
2022/11/16 07:29:08;;;;;;;7.07;3.38;;;14.90;83.90;;;;;;4996777;28;20019;-81
2022/11/16 07:31:33;;;;;;;7.10;2.90;;;14.90;83.90;;;;;;4995390;28;20026;-79
2022/11/16 07:33:59;;;;;;;5.93;2.92;;;15.00;83.90;;;;;;4994584;28;20026;-80
2022/11/16 07:36:24;;;;;;;7.97;3.05;;;15.00;84.10;;;;;;4995196;28;20510;-79
2022/11/16 07:38:50;;;;;;;7.10;3.42;;;15.00;84.20;;;;;;4995182;28;20034;-81
2022/11/16 07:41:19;;;;;;;5.57;3.20;;;15.00;84.40;;;;;;4994216;28;20058;-80
2022/11/16 07:43:45;;;;;;;7.70;3.35;;;15.00;84.90;;;;;;4994432;28;20033;-80
2022/11/16 07:46:16;;;;;;;6.35;3.25;;;14.90;84.50;;;;;;4994297;28;20026;-80
2022/11/16 07:48:42;;;;;;;6.00;2.78;;;14.90;84.50;;;;;;4994016;28;20069;-78
2022/11/16 07:51:13;;;;;;;8.23;3.45;;;14.90;85.00;;;;;;4993600;28;20091;-80
2022/11/16 07:53:40;;;;;;;6.60;3.28;;;14.90;84.50;;;;;;4994017;28;20449;-81
2022/11/16 07:56:06;;;;;;;7.28;3.03;;;14.90;84.50;;;;;;4995234;28;20033;-80
2022/11/16 07:58:33;;;;;;;5.85;3.35;;;14.90;84.60;;;;;;4993672;28;20026;-80
2022/11/16 08:01:10;;;;;;;6.25;3.30;;;14.90;84.60;;;;;;4992864;28;20026;-80
2022/11/16 08:03:37;;;;;;;6.65;3.53;;;14.90;84.60;;;;;;4993502;28;20030;-80
2022/11/16 08:06:10;;;;;;;6.88;3.17;;;14.90;84.60;;;;;;4993553;28;20026;-78
2022/11/16 08:08:36;;;;;;;5.72;3.13;;;14.90;84.60;;;;;;4994985;28;20018;-79
2022/11/16 08:11:07;;;;;;;6.22;2.97;;;14.90;84.60;;;;;;4994515;28;20394;-79
2022/11/16 08:13:34;;;;;;;6.50;3.15;;;14.90;84.60;;;;;;4993271;28;20053;-79
2022/11/16 08:16:01;;;;;;;7.85;3.25;;;14.90;84.60;;;;;;4993134;28;20034;-80
2022/11/16 08:18:27;;;;;;;6.70;3.47;;;14.90;84.60;;;;;;4993014;28;20030;-79
2022/11/16 08:20:53;;;;;;;8.20;3.50;;;14.80;84.60;;;;;;4992458;28;20418;-80
2022/11/16 08:23:19;;;;;;;5.07;3.08;;;14.90;84.60;;;;;;4993018;28;20022;-79
2022/11/16 08:25:44;;;;;;;5.72;2.80;;;14.90;84.70;;;;;;4992711;28;20394;-81
2022/11/16 08:28:10;;;;;;;7.57;3.40;;;14.80;84.50;;;;;;4993277;28;20029;-80
2022/11/16 08:30:38;;;;;;;6.00;3.20;;;14.90;84.50;;;;;;4992391;28;20036;-79
2022/11/16 08:33:04;;;;;;;6.40;3.25;;;14.90;84.50;;;;;;4992746;28;20508;-80
2022/11/16 08:35:29;;;;;;;7.28;3.28;;;15.00;84.40;;;;;;4992210;28;20034;-80
2022/11/16 08:37:55;;;;;;;6.05;3.50;;;15.00;84.80;;;;;;4992768;28;20130;-80
2022/11/16 08:40:21;;;;;;;5.55;2.97;;;15.00;84.20;;;;;;4992413;28;20426;-79
2022/11/16 08:42:47;;;;;;;6.00;3.45;;;15.00;84.00;;;;;;4992492;28;20031;-79
2022/11/16 08:45:12;;;;;;;5.90;3.28;;;15.00;84.00;;;;;;4992385;28;20018;-80
2022/11/16 08:47:38;;;;;;;5.90;3.22;;;15.00;84.00;;;;;;4992551;28;20026;-79
2022/11/16 08:50:04;;;;;;;5.40;3.20;;;15.00;84.60;;;;;;4992492;28;20029;-79
2022/11/16 08:52:30;;;;;;;5.10;2.90;;;15.00;84.20;;;;;;4993422;28;20443;-79
2022/11/16 08:54:55;;;;;;;6.22;3.00;;;15.00;84.30;;;;;;4992374;28;20041;-79
2022/11/16 08:57:21;;;;;;;6.22;3.10;;;14.80;84.30;;;;;;4992374;28;20033;-79
2022/11/16 08:59:46;;;;;;;5.70;3.00;;;15.00;84.40;;;;;;4993716;28;20026;-80
2022/11/16 09:02:12;;;;;;;5.70;3.30;;;14.90;84.40;;;;;;4995442;28;20494;-80
2022/11/16 09:04:37;;;;;;;5.30;2.92;;;15.00;84.50;;;;;;4995816;28;20096;-79
2022/11/16 09:07:03;;;;;;;6.68;3.42;;;14.90;84.50;;;;;;4995757;28;20018;-80
2022/11/16 09:09:29;;;;;;;5.60;3.00;;;14.90;84.40;;;;;;4995981;28;20033;-78
2022/11/16 09:11:54;;;;;;;5.50;2.95;;;14.90;84.50;;;;;;4995742;28;20445;-80
2022/11/16 09:14:20;;;;;;;5.53;2.90;;;14.90;84.50;;;;;;4995605;28;20034;-80
2022/11/16 09:16:46;;;;;;;5.45;3.03;;;14.90;84.50;;;;;;4995624;28;20121;-79
2022/11/16 09:19:12;;;;;;;6.43;2.90;;;14.90;84.50;;;;;;4995874;28;20032;-79
2022/11/16 09:21:37;;;;;;;5.68;3.38;;;14.80;84.50;;;;;;4995303;28;20406;-79
2022/11/16 09:24:03;;;;;;;5.78;3.40;;;14.80;84.50;;;;;;4995471;28;20041;-79
2022/11/16 09:26:29;;;;;;;5.85;3.05;;;14.90;84.50;;;;;;4995647;28;20069;-78
2022/11/16 09:28:57;;;;;;;6.18;3.13;;;14.90;84.50;;;;;;4996879;28;20026;-81
2022/11/16 09:31:26;;;;;;;5.50;3.13;;;14.90;84.50;;;;;;5000862;28;20026;-81
2022/11/16 09:33:52;;;;;;;6.00;3.08;;;14.90;84.50;;;;;;5001285;28;20030;-82
2022/11/16 09:36:19;;;;;;;7.25;2.92;;;14.90;84.50;;;;;;5000115;28;20030;-82
2022/11/16 09:38:45;;;;;;;5.03;3.00;;;14.90;84.50;;;;;;5000704;28;20030;-81
2022/11/16 09:41:20;;;;;;;5.90;3.08;;;14.90;84.60;;;;;;4999285;28;20379;-81
2022/11/16 09:44:01;;;;;;;6.80;3.30;;;14.90;84.60;;;;;;4998803;28;20061;-80
2022/11/16 09:46:44;;;;;;;5.57;3.00;;;14.90;84.50;;;;;;4998661;28;20053;-82
2022/11/16 09:49:19;;;;;;;6.28;3.10;;;14.90;84.40;;;;;;4999407;28;20038;-82
2022/11/16 09:51:48;;;;;;;6.05;3.30;;;14.90;84.80;;;;;;4998296;28;20027;-81
2022/11/16 09:54:26;;;;;;;5.60;3.03;;;15.00;84.20;;;;;;4997817;28;20026;-80
2022/11/16 09:56:56;;;;;;;5.65;2.90;;;15.00;84.10;;;;;;4998108;28;20030;-82
2022/11/16 09:59:39;;;;;;;5.57;3.38;;;14.90;84.00;;;;;;4997472;28;20046;-80
2022/11/16 10:02:40;;;;;;;5.75;3.10;;;15.00;84.00;;;;;;4996908;28;20030;-81
2022/11/16 10:05:26;;;;;;;6.18;3.00;;;15.00;84.10;;;;;;4997027;28;20073;-80
2022/11/16 10:08:20;;;;;;;5.93;3.10;;;15.10;84.30;;;;;;4997227;28;20026;-80
2022/11/16 10:10:59;;;;;;;5.03;2.78;;;15.00;84.30;;;;;;4977649;28;20125;-81
2022/11/16 10:13:46;;;;;;;5.28;2.88;;;15.00;84.30;;;;;;4996270;28;20049;-80
2022/11/16 10:16:33;;;;;;;6.05;2.78;;;15.00;84.40;;;;;;4996138;28;20023;-79
2022/11/16 10:19:04;;;;;;;5.28;2.70;;;15.00;84.50;;;;;;4996134;28;20034;-80
2022/11/16 10:21:42;;;;;;;;;;;14.90;84.40;;;;;;4996079;28;20026;-82
2022/11/16 10:24:17;;;;;;;4.82;2.78;;;14.90;84.50;;;;;;5011971;28;19906;-81
2022/11/16 10:27:33;;;;;;;5.28;2.90;;;14.90;84.50;;;;;;4995716;28;20018;-82
2022/11/16 10:30:20;;;;;;;4.88;2.88;;;14.90;84.50;;;;;;4979025;28;20030;-80
2022/11/16 10:33:00;;;;;;;4.90;2.85;;;14.90;84.60;;;;;;4995127;28;20050;-81
2022/11/16 10:35:39;;;;;;;5.78;3.10;;;14.90;84.60;;;;;;4995195;28;20066;-80
2022/11/16 10:38:16;;;;;;;4.80;2.70;;;14.90;84.70;;;;;;4996854;28;20080;-81
2022/11/16 10:40:48;;;;;;;4.85;2.75;;;14.90;84.70;;;;;;4994487;28;20030;-80
2022/11/16 10:43:21;;;;;;;4.95;2.53;;;14.80;84.60;;;;;;4994837;28;20491;-79
2022/11/16 10:46:24;;;;;;;5.90;2.92;;;14.90;84.70;;;;;;4994576;28;20050;-79
2022/11/16 10:49:15;;;;;;;4.93;2.78;;;14.90;84.60;;;;;;4994355;28;20023;-79
2022/11/16 10:51:41;;;;;;;4.78;2.65;;;14.90;84.70;;;;;;4993709;28;20521;-76
2022/11/16 10:54:15;;;;;;;5.32;2.92;;;14.90;84.70;;;;;;4995881;28;20041;-79
2022/11/16 10:56:48;;;;;;;5.32;2.60;;;14.90;84.60;;;;;;4994169;28;20062;-80
2022/11/16 10:59:40;;;;;;;4.95;2.50;;;15.00;84.50;;;;;;4994178;28;20513;-79
2022/11/16 11:02:26;;;;;;;4.65;2.80;;;15.00;84.40;;;;;;4993395;28;20562;-78
2022/11/16 11:05:19;;;;;;;4.30;2.50;;;15.00;84.70;;;;;;4993785;28;20032;-80
2022/11/16 11:07:50;;;;;;;4.38;2.42;;;15.10;84.10;;;;;;4992351;28;20034;-78
2022/11/16 11:10:36;;;;;;;4.15;2.55;;;15.30;83.80;;;;;;4993502;28;20117;-77
2022/11/16 11:13:25;;;;;;;4.40;2.55;;;15.40;83.40;;;;;;4993734;28;20023;-80
2022/11/16 11:15:50;;;;;;;4.53;2.58;;;15.40;83.00;;;;;;4993756;28;20045;-79
2022/11/16 11:18:22;;;;;;;4.38;2.42;;;15.40;82.90;;;;;;4993727;28;20486;-79
2022/11/16 11:20:57;;;;;;;;;;;15.40;82.90;;;;;;4993285;28;20027;-79
2022/11/16 11:23:25;;;;;;;3.97;2.35;;;15.30;82.90;;;;;;4994371;28;19922;-79
2022/11/16 11:25:58;;;;;;;4.53;2.50;;;15.30;83.00;;;;;;4993330;28;20498;-79
2022/11/16 11:28:27;;;;;;;4.97;2.47;;;15.30;83.10;;;;;;4993426;28;20518;-79
2022/11/16 11:31:08;;;;;;;5.32;2.40;;;15.30;83.10;;;;;;4992993;28;20027;-79
2022/11/16 11:33:35;;;;;;;4.97;2.70;;;15.30;83.10;;;;;;4992927;28;20113;-79
2022/11/16 11:36:19;;;;;;;4.38;2.33;;;15.30;83.20;;;;;;4993380;28;20027;-78
2022/11/16 11:39:06;;;;;;;3.28;2.10;;;15.30;83.20;;;;;;4992925;28;20113;-78
2022/11/16 11:41:35;;;;;;;4.20;2.40;;;15.30;83.20;;;;;;4992596;28;20066;-78
2022/11/16 11:44:19;;;;;;;4.97;2.38;;;15.30;83.80;;;;;;4992773;28;20054;-79
2022/11/16 11:47:02;;;;;;;4.65;2.47;;;15.30;83.40;;;;;;4992788;28;20026;-80
2022/11/16 11:49:36;;;;;;;4.50;2.35;;;15.30;83.40;;;;;;4992878;28;20025;-80
2022/11/16 11:52:13;;;;;;;3.95;2.40;;;15.30;83.20;;;;;;4992295;28;20394;-81
2022/11/16 11:54:46;;;;;;;4.63;2.60;;;15.40;83.70;;;;;;4992665;28;20027;-80
2022/11/16 11:57:20;;;;;;;4.35;2.50;;;15.50;82.90;;;;;;4992610;28;20034;-81
2022/11/16 11:59:47;;;;;;;4.32;2.45;;;15.50;82.80;;;;;;4992488;28;20031;-80
2022/11/16 12:02:34;;;;;;;4.53;2.40;;;15.50;82.70;;;;;;4992435;28;20026;-81
2022/11/16 12:05:39;;;;;;;4.72;2.53;;;15.50;82.60;;;;;;4991560;28;20030;-82
2022/11/16 12:08:36;;;;;;;4.15;2.30;;;15.40;82.50;;;;;;4980221;28;20033;-82
2022/11/16 12:11:04;;;;;;;4.00;2.22;;;15.40;82.70;;;;;;4996666;28;20034;-82
2022/11/16 12:14:06;;;;;;;5.25;2.70;;;15.40;82.60;;;;;;4996483;28;20125;-82
2022/11/16 12:16:41;;;;;;;4.82;2.58;;;15.40;82.70;;;;;;4993024;28;20022;-80
2022/11/16 12:19:13;;;;;;;4.22;2.20;;;15.50;82.80;;;;;;4977119;28;20030;-80
2022/11/16 12:21:57;;;;;;;3.55;2.08;;;15.40;82.60;;;;;;4976044;28;20027;-80
2022/11/16 12:24:37;;;;;;;4.43;2.40;;;15.50;82.40;;;;;;4976651;28;20074;-80
2022/11/16 12:27:35;;;;;;;4.30;2.22;;;15.60;82.10;;;;;;4975954;28;20129;-82
2022/11/16 12:30:00;;;;;;;3.95;2.13;;;15.70;82.00;;;;;;4975719;28;20023;-80
2022/11/16 12:32:44;;;;;;;4.38;2.08;;;15.60;81.90;;;;;;4975574;28;20037;-80
2022/11/16 12:35:28;;;;;;;4.38;2.25;;;15.60;81.90;;;;;;4978959;28;20062;-80
2022/11/16 12:38:04;;;;;;;3.65;1.98;;;15.60;82.00;;;;;;4979147;28;20395;-80
2022/11/16 12:41:04;;;;;;;3.80;2.17;;;15.60;82.40;;;;;;4978564;28;20117;-79
2022/11/16 12:43:53;;;;;;;3.90;2.20;;;15.60;82.10;;;;;;4943570;28;20039;-78
2022/11/16 12:46:44;;;;;;;3.92;1.90;;;15.60;82.00;;;;;;4978279;28;20026;-79
2022/11/16 12:49:27;;;;;;;3.97;2.10;;;15.50;82.10;;;;;;4978490;28;20031;-78
2022/11/16 12:51:55;;;;;;;3.60;2.00;;;15.50;82.20;;;;;;4978071;28;20030;-78
2022/11/16 12:54:27;;;;;;;4.00;2.05;;;15.50;82.30;;;;;;4979169;28;20027;-80
2022/11/16 12:57:04;;;;;;;;;;;15.50;82.40;;;;;;4978373;28;20096;-79
2022/11/16 12:59:37;;;;;;;3.17;1.80;;;15.50;82.50;;;;;;4977718;28;19906;-79
2022/11/16 13:02:07;;;;;;;4.10;2.05;;;15.40;82.50;;;;;;4977199;28;20133;-80
2022/11/16 13:05:11;;;;;;;4.20;2.17;;;15.40;82.60;;;;;;4977218;28;20030;-78
2022/11/16 13:07:44;;;;;;;4.22;2.10;;;15.50;82.70;;;;;;4937494;29;20486;-79
2022/11/16 13:10:29;;;;;;;3.33;1.83;;;15.40;82.60;;;;;;4971155;28;20406;-75
2022/11/16 13:13:00;;;;;;;4.15;2.17;;;15.50;82.70;;;;;;4977826;28;20059;-79
2022/11/16 13:15:37;;;;;;;;;;;15.50;83.10;;;;;;4976120;28;20406;-77
2022/11/16 13:18:10;;;;;;;3.03;1.70;;;15.50;82.60;;;;;;4975848;28;19992;-77
2022/11/16 13:21:25;;;;;;;3.70;1.90;;;15.50;82.60;;;;;;4975398;28;20035;-78
2022/11/16 13:24:13;;;;;;;3.90;2.08;;;15.50;82.70;;;;;;4973685;28;20498;-78
2022/11/16 13:27:15;;;;;;;3.38;1.85;;;15.50;82.80;;;;;;4975713;28;20031;-77
2022/11/16 13:30:12;;;;;;;4.00;1.98;;;15.40;82.80;;;;;;4975861;28;20302;-77
2022/11/16 13:33:05;;;;;;;3.35;1.80;;;15.40;82.70;;;;;;4975243;28;20398;-77
2022/11/16 13:35:34;;;;;;;3.85;1.98;;;15.50;82.70;;;;;;4974756;28;20035;-78
2022/11/16 13:38:00;;;;;;;4.03;1.88;;;15.50;82.60;;;;;;4974844;28;20031;-78
2022/11/16 13:40:31;;;;;;;3.65;2.17;;;15.50;82.40;;;;;;4975193;28;20085;-77
2022/11/16 13:43:08;;;;;;;3.90;2.35;;;15.50;82.40;;;;;;4976314;28;20487;-78
2022/11/16 13:45:58;;;;;;;3.67;1.88;;;15.50;82.30;;;;;;4974400;28;20029;-77
2022/11/16 13:48:36;;;;;;;3.25;1.83;;;15.50;82.40;;;;;;4974796;28;20023;-77
2022/11/16 13:51:05;;;;;;;3.47;1.77;;;15.50;82.60;;;;;;4974361;28;20108;-77